sensor_id;sensor_type;location;lat;lon;timestamp;temperature;humidity
74511;DHT22;62991;50.040;18.400;2024-01-16T00:02:31;0.00;66.30
74511;DHT22;62991;50.040;18.400;2024-01-16T00:05:32;0.10;66.40
74511;DHT22;62991;50.040;18.400;2024-01-16T00:08:33;-0.10;66.90
74511;DHT22;62991;50.040;18.400;2024-01-16T00:11:33;-0.10;67.20
74511;DHT22;62991;50.040;18.400;2024-01-16T00:14:35;0.00;66.90
74511;DHT22;62991;50.040;18.400;2024-01-16T00:17:36;0.10;66.80
74511;DHT22;62991;50.040;18.400;2024-01-16T00:20:37;0.00;66.80
74511;DHT22;62991;50.040;18.400;2024-01-16T00:23:38;0.10;66.40
74511;DHT22;62991;50.040;18.400;2024-01-16T00:26:38;0.00;66.70
74511;DHT22;62991;50.040;18.400;2024-01-16T00:29:39;0.10;66.40
74511;DHT22;62991;50.040;18.400;2024-01-16T00:32:40;-0.10;66.60
74511;DHT22;62991;50.040;18.400;2024-01-16T00:35:41;-0.20;67.40
74511;DHT22;62991;50.040;18.400;2024-01-16T00:38:41;-0.20;67.30
74511;DHT22;62991;50.040;18.400;2024-01-16T00:41:42;-0.20;67.40
74511;DHT22;62991;50.040;18.400;2024-01-16T00:44:43;-0.20;67.90
74511;DHT22;62991;50.040;18.400;2024-01-16T00:47:43;-0.20;67.10
74511;DHT22;62991;50.040;18.400;2024-01-16T00:50:44;-0.10;67.00
74511;DHT22;62991;50.040;18.400;2024-01-16T00:53:46;-0.20;67.40
74511;DHT22;62991;50.040;18.400;2024-01-16T00:56:47;-0.20;67.50
74511;DHT22;62991;50.040;18.400;2024-01-16T00:59:48;-0.20;67.60
74511;DHT22;62991;50.040;18.400;2024-01-16T01:02:49;-0.20;67.60
74511;DHT22;62991;50.040;18.400;2024-01-16T01:05:49;-0.10;67.20
74511;DHT22;62991;50.040;18.400;2024-01-16T01:08:50;-0.20;67.50
74511;DHT22;62991;50.040;18.400;2024-01-16T01:11:51;-0.10;67.00
74511;DHT22;62991;50.040;18.400;2024-01-16T01:14:52;-0.10;67.10
74511;DHT22;62991;50.040;18.400;2024-01-16T01:17:52;-0.10;67.20
74511;DHT22;62991;50.040;18.400;2024-01-16T01:20:54;-0.30;67.40
74511;DHT22;62991;50.040;18.400;2024-01-16T01:23:56;-0.30;67.90
74511;DHT22;62991;50.040;18.400;2024-01-16T01:26:56;-0.30;67.70
74511;DHT22;62991;50.040;18.400;2024-01-16T01:29:58;-0.30;67.70
74511;DHT22;62991;50.040;18.400;2024-01-16T01:32:59;-0.30;68.00
74511;DHT22;62991;50.040;18.400;2024-01-16T01:35:59;-0.30;68.10
74511;DHT22;62991;50.040;18.400;2024-01-16T01:39:00;-0.30;68.40
74511;DHT22;62991;50.040;18.400;2024-01-16T01:42:01;-0.30;68.20
74511;DHT22;62991;50.040;18.400;2024-01-16T01:45:01;-0.20;68.10
74511;DHT22;62991;50.040;18.400;2024-01-16T01:48:02;-0.30;68.40
74511;DHT22;62991;50.040;18.400;2024-01-16T01:51:12;-0.10;68.00
74511;DHT22;62991;50.040;18.400;2024-01-16T01:54:13;-0.10;68.10
74511;DHT22;62991;50.040;18.400;2024-01-16T01:57:15;-0.10;68.20
74511;DHT22;62991;50.040;18.400;2024-01-16T02:00:16;-0.10;68.20
74511;DHT22;62991;50.040;18.400;2024-01-16T02:03:20;-0.10;68.30
74511;DHT22;62991;50.040;18.400;2024-01-16T02:06:21;-0.20;68.50
74511;DHT22;62991;50.040;18.400;2024-01-16T02:09:22;-0.10;68.60
74511;DHT22;62991;50.040;18.400;2024-01-16T02:12:23;0.10;67.90
74511;DHT22;62991;50.040;18.400;2024-01-16T02:15:24;-0.10;68.40
74511;DHT22;62991;50.040;18.400;2024-01-16T02:18:25;0.00;68.00
74511;DHT22;62991;50.040;18.400;2024-01-16T02:21:28;-0.10;68.70
74511;DHT22;62991;50.040;18.400;2024-01-16T02:24:29;0.00;68.30
74511;DHT22;62991;50.040;18.400;2024-01-16T02:27:30;-0.10;68.60
74511;DHT22;62991;50.040;18.400;2024-01-16T02:30:30;-0.10;68.80
74511;DHT22;62991;50.040;18.400;2024-01-16T02:33:31;-0.10;68.60
74511;DHT22;62991;50.040;18.400;2024-01-16T02:36:32;-0.10;68.70
74511;DHT22;62991;50.040;18.400;2024-01-16T02:39:33;-0.10;68.90
74511;DHT22;62991;50.040;18.400;2024-01-16T02:42:34;-0.10;68.80
74511;DHT22;62991;50.040;18.400;2024-01-16T02:45:35;-0.10;69.10
74511;DHT22;62991;50.040;18.400;2024-01-16T02:48:36;0.00;68.90
74511;DHT22;62991;50.040;18.400;2024-01-16T02:51:37;-0.10;69.10
74511;DHT22;62991;50.040;18.400;2024-01-16T02:54:38;0.00;69.10
74511;DHT22;62991;50.040;18.400;2024-01-16T02:57:39;0.10;68.80
74511;DHT22;62991;50.040;18.400;2024-01-16T03:00:40;0.30;68.30
74511;DHT22;62991;50.040;18.400;2024-01-16T03:03:41;0.20;68.50
74511;DHT22;62991;50.040;18.400;2024-01-16T03:06:41;0.20;68.60
74511;DHT22;62991;50.040;18.400;2024-01-16T03:09:42;0.30;68.60
74511;DHT22;62991;50.040;18.400;2024-01-16T03:12:42;0.30;68.40
74511;DHT22;62991;50.040;18.400;2024-01-16T03:15:43;0.30;68.30
74511;DHT22;62991;50.040;18.400;2024-01-16T03:18:44;0.30;68.70
74511;DHT22;62991;50.040;18.400;2024-01-16T03:21:44;0.10;68.70
74511;DHT22;62991;50.040;18.400;2024-01-16T03:24:45;0.00;69.00
74511;DHT22;62991;50.040;18.400;2024-01-16T03:27:46;0.00;69.50
74511;DHT22;62991;50.040;18.400;2024-01-16T03:30:47;0.00;69.50
74511;DHT22;62991;50.040;18.400;2024-01-16T03:33:48;0.00;69.40
74511;DHT22;62991;50.040;18.400;2024-01-16T03:36:48;-0.30;70.40
74511;DHT22;62991;50.040;18.400;2024-01-16T03:39:49;-0.20;70.10
74511;DHT22;62991;50.040;18.400;2024-01-16T03:42:50;-0.10;69.90
74511;DHT22;62991;50.040;18.400;2024-01-16T03:45:51;-0.20;70.10
74511;DHT22;62991;50.040;18.400;2024-01-16T03:48:51;-0.20;69.70
74511;DHT22;62991;50.040;18.400;2024-01-16T03:51:52;-0.30;70.00
74511;DHT22;62991;50.040;18.400;2024-01-16T03:54:53;-0.10;70.40
74511;DHT22;62991;50.040;18.400;2024-01-16T03:57:53;0.10;69.10
74511;DHT22;62991;50.040;18.400;2024-01-16T04:00:54;0.20;68.90
74511;DHT22;62991;50.040;18.400;2024-01-16T04:03:55;0.30;67.30
74511;DHT22;62991;50.040;18.400;2024-01-16T04:06:56;0.30;67.10
74511;DHT22;62991;50.040;18.400;2024-01-16T04:09:56;0.40;67.10
74511;DHT22;62991;50.040;18.400;2024-01-16T04:13:00;0.30;67.10
74511;DHT22;62991;50.040;18.400;2024-01-16T04:16:01;0.50;66.80
74511;DHT22;62991;50.040;18.400;2024-01-16T04:19:02;0.60;66.20
74511;DHT22;62991;50.040;18.400;2024-01-16T04:22:03;0.50;65.80
74511;DHT22;62991;50.040;18.400;2024-01-16T04:25:05;0.70;65.80
74511;DHT22;62991;50.040;18.400;2024-01-16T04:28:06;0.60;66.00
74511;DHT22;62991;50.040;18.400;2024-01-16T04:31:07;0.80;66.00
74511;DHT22;62991;50.040;18.400;2024-01-16T04:34:07;0.90;65.50
74511;DHT22;62991;50.040;18.400;2024-01-16T04:37:08;1.00;65.50
74511;DHT22;62991;50.040;18.400;2024-01-16T04:40:09;0.80;66.40
74511;DHT22;62991;50.040;18.400;2024-01-16T04:43:10;0.90;66.30
74511;DHT22;62991;50.040;18.400;2024-01-16T04:46:11;0.70;66.90
74511;DHT22;62991;50.040;18.400;2024-01-16T04:49:11;0.60;68.30
74511;DHT22;62991;50.040;18.400;2024-01-16T04:52:12;0.60;69.10
74511;DHT22;62991;50.040;18.400;2024-01-16T04:55:13;0.70;68.70
74511;DHT22;62991;50.040;18.400;2024-01-16T04:58:14;0.80;69.10
74511;DHT22;62991;50.040;18.400;2024-01-16T05:01:14;0.80;69.20
74511;DHT22;62991;50.040;18.400;2024-01-16T05:04:15;0.80;69.30
74511;DHT22;62991;50.040;18.400;2024-01-16T05:07:15;1.00;69.50
74511;DHT22;62991;50.040;18.400;2024-01-16T05:10:16;0.90;69.80
74511;DHT22;62991;50.040;18.400;2024-01-16T05:13:17;0.80;70.90
74511;DHT22;62991;50.040;18.400;2024-01-16T05:16:18;0.50;72.20
74511;DHT22;62991;50.040;18.400;2024-01-16T05:19:18;0.30;73.50
74511;DHT22;62991;50.040;18.400;2024-01-16T05:22:19;0.10;75.40
74511;DHT22;62991;50.040;18.400;2024-01-16T05:25:20;0.10;75.70
74511;DHT22;62991;50.040;18.400;2024-01-16T05:28:22;0.00;76.20
74511;DHT22;62991;50.040;18.400;2024-01-16T05:31:22;-0.20;76.80
74511;DHT22;62991;50.040;18.400;2024-01-16T05:34:23;-0.10;76.00
74511;DHT22;62991;50.040;18.400;2024-01-16T05:37:24;0.00;75.90
74511;DHT22;62991;50.040;18.400;2024-01-16T05:40:25;-0.10;75.60
74511;DHT22;62991;50.040;18.400;2024-01-16T05:43:26;-0.20;76.20
74511;DHT22;62991;50.040;18.400;2024-01-16T05:46:31;-0.10;76.40
74511;DHT22;62991;50.040;18.400;2024-01-16T05:49:32;0.10;75.80
74511;DHT22;62991;50.040;18.400;2024-01-16T05:52:32;0.00;76.10
74511;DHT22;62991;50.040;18.400;2024-01-16T05:55:33;0.20;75.80
74511;DHT22;62991;50.040;18.400;2024-01-16T05:58:37;0.30;74.80
74511;DHT22;62991;50.040;18.400;2024-01-16T06:01:39;0.40;75.60
74511;DHT22;62991;50.040;18.400;2024-01-16T06:04:40;0.40;74.80
74511;DHT22;62991;50.040;18.400;2024-01-16T06:07:40;0.50;74.70
74511;DHT22;62991;50.040;18.400;2024-01-16T06:10:41;0.30;75.90
74511;DHT22;62991;50.040;18.400;2024-01-16T06:13:42;0.50;75.30
74511;DHT22;62991;50.040;18.400;2024-01-16T06:16:42;0.60;74.70
74511;DHT22;62991;50.040;18.400;2024-01-16T06:19:43;0.50;75.60
74511;DHT22;62991;50.040;18.400;2024-01-16T06:22:44;0.80;74.60
74511;DHT22;62991;50.040;18.400;2024-01-16T06:25:44;0.50;75.30
74511;DHT22;62991;50.040;18.400;2024-01-16T06:28:45;0.70;75.10
74511;DHT22;62991;50.040;18.400;2024-01-16T06:31:46;0.50;74.70
74511;DHT22;62991;50.040;18.400;2024-01-16T06:34:46;0.20;76.00
74511;DHT22;62991;50.040;18.400;2024-01-16T06:37:47;0.10;76.70
74511;DHT22;62991;50.040;18.400;2024-01-16T06:40:48;-0.10;76.30
74511;DHT22;62991;50.040;18.400;2024-01-16T06:43:48;0.00;75.60
74511;DHT22;62991;50.040;18.400;2024-01-16T06:46:49;-0.10;74.40
74511;DHT22;62991;50.040;18.400;2024-01-16T06:49:50;-0.30;74.60
74511;DHT22;62991;50.040;18.400;2024-01-16T06:52:50;-0.30;74.00
74511;DHT22;62991;50.040;18.400;2024-01-16T06:55:51;-0.30;73.10
74511;DHT22;62991;50.040;18.400;2024-01-16T06:58:52;-0.40;72.50
74511;DHT22;62991;50.040;18.400;2024-01-16T07:01:52;-0.30;72.20
74511;DHT22;62991;50.040;18.400;2024-01-16T07:04:55;-0.30;71.90
74511;DHT22;62991;50.040;18.400;2024-01-16T07:07:55;-0.20;71.60
74511;DHT22;62991;50.040;18.400;2024-01-16T07:10:56;-0.20;71.50
74511;DHT22;62991;50.040;18.400;2024-01-16T07:13:57;-0.40;71.80
74511;DHT22;62991;50.040;18.400;2024-01-16T07:16:57;-0.40;71.20
74511;DHT22;62991;50.040;18.400;2024-01-16T07:19:59;-0.30;71.50
74511;DHT22;62991;50.040;18.400;2024-01-16T07:23:00;-0.40;70.40
74511;DHT22;62991;50.040;18.400;2024-01-16T07:26:00;-0.40;71.00
74511;DHT22;62991;50.040;18.400;2024-01-16T07:29:01;-0.10;69.80
74511;DHT22;62991;50.040;18.400;2024-01-16T07:32:02;-0.10;69.40
74511;DHT22;62991;50.040;18.400;2024-01-16T07:35:03;-0.40;69.60
74511;DHT22;62991;50.040;18.400;2024-01-16T07:38:04;-0.20;68.80
74511;DHT22;62991;50.040;18.400;2024-01-16T07:41:05;-0.10;68.60
74511;DHT22;62991;50.040;18.400;2024-01-16T07:44:06;-0.30;68.70
74511;DHT22;62991;50.040;18.400;2024-01-16T07:47:06;-0.30;68.70
74511;DHT22;62991;50.040;18.400;2024-01-16T07:50:08;-0.20;68.50
74511;DHT22;62991;50.040;18.400;2024-01-16T07:53:09;-0.40;68.80
74511;DHT22;62991;50.040;18.400;2024-01-16T07:56:10;-0.20;68.70
74511;DHT22;62991;50.040;18.400;2024-01-16T07:59:11;-0.40;69.20
74511;DHT22;62991;50.040;18.400;2024-01-16T08:02:12;-0.50;68.90
74511;DHT22;62991;50.040;18.400;2024-01-16T08:05:13;-0.30;68.70
74511;DHT22;62991;50.040;18.400;2024-01-16T08:08:13;-0.30;68.50
74511;DHT22;62991;50.040;18.400;2024-01-16T08:11:15;-0.10;68.10
74511;DHT22;62991;50.040;18.400;2024-01-16T08:14:15;-0.20;67.40
74511;DHT22;62991;50.040;18.400;2024-01-16T08:17:16;-0.30;67.80
74511;DHT22;62991;50.040;18.400;2024-01-16T08:20:17;-0.20;67.50
74511;DHT22;62991;50.040;18.400;2024-01-16T08:23:18;-0.10;67.40
74511;DHT22;62991;50.040;18.400;2024-01-16T08:26:19;0.00;66.80
74511;DHT22;62991;50.040;18.400;2024-01-16T08:29:19;-0.10;66.50
74511;DHT22;62991;50.040;18.400;2024-01-16T08:32:20;-0.10;66.90
74511;DHT22;62991;50.040;18.400;2024-01-16T08:35:21;0.10;66.50
74511;DHT22;62991;50.040;18.400;2024-01-16T08:38:22;0.10;65.90
74511;DHT22;62991;50.040;18.400;2024-01-16T08:41:22;0.30;65.50
74511;DHT22;62991;50.040;18.400;2024-01-16T08:44:23;0.60;64.20
74511;DHT22;62991;50.040;18.400;2024-01-16T08:47:24;0.70;63.80
74511;DHT22;62991;50.040;18.400;2024-01-16T08:50:25;0.40;63.60
74511;DHT22;62991;50.040;18.400;2024-01-16T08:53:26;0.40;63.90
74511;DHT22;62991;50.040;18.400;2024-01-16T08:56:26;0.50;63.70
74511;DHT22;62991;50.040;18.400;2024-01-16T08:59:27;0.70;62.90
74511;DHT22;62991;50.040;18.400;2024-01-16T09:02:28;0.90;62.40
74511;DHT22;62991;50.040;18.400;2024-01-16T09:05:29;0.70;62.50
74511;DHT22;62991;50.040;18.400;2024-01-16T09:08:30;0.80;62.50
74511;DHT22;62991;50.040;18.400;2024-01-16T09:11:31;1.00;62.60
74511;DHT22;62991;50.040;18.400;2024-01-16T09:14:35;1.20;63.60
74511;DHT22;62991;50.040;18.400;2024-01-16T09:17:36;1.30;61.40
74511;DHT22;62991;50.040;18.400;2024-01-16T09:20:36;1.40;61.80
74511;DHT22;62991;50.040;18.400;2024-01-16T09:23:37;1.60;60.70
74511;DHT22;62991;50.040;18.400;2024-01-16T09:26:38;1.30;61.50
74511;DHT22;62991;50.040;18.400;2024-01-16T09:29:38;1.20;61.70
74511;DHT22;62991;50.040;18.400;2024-01-16T09:32:39;1.30;62.30
74511;DHT22;62991;50.040;18.400;2024-01-16T09:35:40;1.20;61.30
74511;DHT22;62991;50.040;18.400;2024-01-16T09:38:40;1.10;61.40
74511;DHT22;62991;50.040;18.400;2024-01-16T09:41:41;1.10;61.50
74511;DHT22;62991;50.040;18.400;2024-01-16T09:44:43;1.00;62.30
74511;DHT22;62991;50.040;18.400;2024-01-16T09:47:43;0.80;62.20
74511;DHT22;62991;50.040;18.400;2024-01-16T09:50:44;1.00;61.50
74511;DHT22;62991;50.040;18.400;2024-01-16T09:53:45;1.10;61.40
74511;DHT22;62991;50.040;18.400;2024-01-16T09:56:48;1.20;60.90
74511;DHT22;62991;50.040;18.400;2024-01-16T09:59:56;1.40;60.30
74511;DHT22;62991;50.040;18.400;2024-01-16T10:02:57;1.40;59.60
74511;DHT22;62991;50.040;18.400;2024-01-16T10:05:59;1.20;60.40
74511;DHT22;62991;50.040;18.400;2024-01-16T10:09:01;1.30;60.10
74511;DHT22;62991;50.040;18.400;2024-01-16T10:12:02;1.30;60.40
74511;DHT22;62991;50.040;18.400;2024-01-16T10:15:05;1.40;60.10
74511;DHT22;62991;50.040;18.400;2024-01-16T10:18:22;1.30;60.30
74511;DHT22;62991;50.040;18.400;2024-01-16T10:21:23;1.40;60.40
74511;DHT22;62991;50.040;18.400;2024-01-16T10:24:25;1.10;61.00
74511;DHT22;62991;50.040;18.400;2024-01-16T10:27:26;1.30;60.70
74511;DHT22;62991;50.040;18.400;2024-01-16T10:30:30;1.30;60.50
74511;DHT22;62991;50.040;18.400;2024-01-16T10:33:31;1.40;60.90
74511;DHT22;62991;50.040;18.400;2024-01-16T10:36:32;1.00;61.30
74511;DHT22;62991;50.040;18.400;2024-01-16T10:39:33;1.10;62.10
74511;DHT22;62991;50.040;18.400;2024-01-16T10:42:33;1.20;62.00
74511;DHT22;62991;50.040;18.400;2024-01-16T10:45:34;1.00;62.70
74511;DHT22;62991;50.040;18.400;2024-01-16T10:48:35;0.80;63.60
74511;DHT22;62991;50.040;18.400;2024-01-16T10:51:36;1.00;63.90
74511;DHT22;62991;50.040;18.400;2024-01-16T10:54:43;1.10;63.80
74511;DHT22;62991;50.040;18.400;2024-01-16T10:57:46;0.80;66.10
74511;DHT22;62991;50.040;18.400;2024-01-16T11:00:51;0.60;67.30
74511;DHT22;62991;50.040;18.400;2024-01-16T11:03:53;0.70;67.00
74511;DHT22;62991;50.040;18.400;2024-01-16T11:06:57;0.60;66.90
74511;DHT22;62991;50.040;18.400;2024-01-16T11:09:59;0.60;67.10
74511;DHT22;62991;50.040;18.400;2024-01-16T11:13:01;0.90;66.10
74511;DHT22;62991;50.040;18.400;2024-01-16T11:16:03;0.90;64.10
74511;DHT22;62991;50.040;18.400;2024-01-16T11:19:07;0.90;65.60
74511;DHT22;62991;50.040;18.400;2024-01-16T11:22:08;1.00;67.80
74511;DHT22;62991;50.040;18.400;2024-01-16T11:28:15;1.00;68.10
74511;DHT22;62991;50.040;18.400;2024-01-16T11:31:29;0.90;67.70
74511;DHT22;62991;50.040;18.400;2024-01-16T11:37:45;1.00;67.00
74511;DHT22;62991;50.040;18.400;2024-01-16T11:40:46;1.00;66.60
74511;DHT22;62991;50.040;18.400;2024-01-16T11:43:48;2.10;65.70
74511;DHT22;62991;50.040;18.400;2024-01-16T11:47:01;3.40;60.50
74511;DHT22;62991;50.040;18.400;2024-01-16T11:50:10;6.60;55.50
74511;DHT22;62991;50.040;18.400;2024-01-16T11:53:37;8.60;46.90
74511;DHT22;62991;50.040;18.400;2024-01-16T12:00:06;5.10;53.50
74511;DHT22;62991;50.040;18.400;2024-01-16T12:03:16;3.90;56.50
74511;DHT22;62991;50.040;18.400;2024-01-16T12:06:18;3.70;58.50
74511;DHT22;62991;50.040;18.400;2024-01-16T12:09:19;3.70;57.80
74511;DHT22;62991;50.040;18.400;2024-01-16T12:12:20;3.20;58.80
74511;DHT22;62991;50.040;18.400;2024-01-16T12:15:21;3.20;59.00
74511;DHT22;62991;50.040;18.400;2024-01-16T12:18:22;2.30;60.90
74511;DHT22;62991;50.040;18.400;2024-01-16T12:21:23;2.40;60.40
74511;DHT22;62991;50.040;18.400;2024-01-16T12:24:23;2.60;59.90
74511;DHT22;62991;50.040;18.400;2024-01-16T12:27:24;2.70;59.60
74511;DHT22;62991;50.040;18.400;2024-01-16T12:30:26;2.70;59.80
74511;DHT22;62991;50.040;18.400;2024-01-16T12:33:28;3.30;58.00
74511;DHT22;62991;50.040;18.400;2024-01-16T12:36:29;3.30;58.70
74511;DHT22;62991;50.040;18.400;2024-01-16T12:39:30;2.90;59.80
74511;DHT22;62991;50.040;18.400;2024-01-16T12:42:30;2.50;61.00
74511;DHT22;62991;50.040;18.400;2024-01-16T12:45:31;2.60;60.60
74511;DHT22;62991;50.040;18.400;2024-01-16T12:48:32;2.20;61.40
74511;DHT22;62991;50.040;18.400;2024-01-16T12:51:33;2.50;62.10
74511;DHT22;62991;50.040;18.400;2024-01-16T12:54:35;2.80;60.60
74511;DHT22;62991;50.040;18.400;2024-01-16T12:57:35;2.70;60.70
74511;DHT22;62991;50.040;18.400;2024-01-16T13:00:37;2.70;61.50
74511;DHT22;62991;50.040;18.400;2024-01-16T13:03:40;2.70;61.30
74511;DHT22;62991;50.040;18.400;2024-01-16T13:06:40;2.40;61.10
74511;DHT22;62991;50.040;18.400;2024-01-16T13:09:44;2.60;60.60
74511;DHT22;62991;50.040;18.400;2024-01-16T13:12:44;4.60;58.00
74511;DHT22;62991;50.040;18.400;2024-01-16T13:15:46;7.50;51.30
74511;DHT22;62991;50.040;18.400;2024-01-16T13:18:47;8.10;48.00
74511;DHT22;62991;50.040;18.400;2024-01-16T13:22:00;7.40;47.80
74511;DHT22;62991;50.040;18.400;2024-01-16T13:25:01;6.30;49.10
74511;DHT22;62991;50.040;18.400;2024-01-16T13:28:01;4.60;52.80
74511;DHT22;62991;50.040;18.400;2024-01-16T13:31:02;3.60;55.10
74511;DHT22;62991;50.040;18.400;2024-01-16T13:34:05;3.20;57.20
74511;DHT22;62991;50.040;18.400;2024-01-16T13:37:06;2.90;58.00
74511;DHT22;62991;50.040;18.400;2024-01-16T13:40:07;2.80;59.60
74511;DHT22;62991;50.040;18.400;2024-01-16T13:43:15;2.60;59.50
74511;DHT22;62991;50.040;18.400;2024-01-16T13:46:16;2.40;60.10
74511;DHT22;62991;50.040;18.400;2024-01-16T13:49:18;2.00;60.60
74511;DHT22;62991;50.040;18.400;2024-01-16T13:52:18;1.90;61.00
74511;DHT22;62991;50.040;18.400;2024-01-16T13:55:19;1.90;61.00
74511;DHT22;62991;50.040;18.400;2024-01-16T13:58:20;2.10;61.10
74511;DHT22;62991;50.040;18.400;2024-01-16T14:01:20;1.90;60.80
74511;DHT22;62991;50.040;18.400;2024-01-16T14:04:22;1.70;61.20
74511;DHT22;62991;50.040;18.400;2024-01-16T14:07:22;1.40;62.20
74511;DHT22;62991;50.040;18.400;2024-01-16T14:10:23;1.60;62.10
74511;DHT22;62991;50.040;18.400;2024-01-16T14:13:25;1.80;62.40
74511;DHT22;62991;50.040;18.400;2024-01-16T14:16:28;1.80;64.00
74511;DHT22;62991;50.040;18.400;2024-01-16T14:19:29;2.00;64.20
74511;DHT22;62991;50.040;18.400;2024-01-16T14:22:30;2.00;64.40
74511;DHT22;62991;50.040;18.400;2024-01-16T14:25:31;2.10;64.60
74511;DHT22;62991;50.040;18.400;2024-01-16T14:28:32;1.80;65.30
74511;DHT22;62991;50.040;18.400;2024-01-16T14:31:34;1.60;65.70
74511;DHT22;62991;50.040;18.400;2024-01-16T14:34:34;1.30;66.40
74511;DHT22;62991;50.040;18.400;2024-01-16T14:37:36;1.20;67.40
74511;DHT22;62991;50.040;18.400;2024-01-16T14:40:37;0.90;66.90
74511;DHT22;62991;50.040;18.400;2024-01-16T14:43:38;0.80;67.30
74511;DHT22;62991;50.040;18.400;2024-01-16T14:46:40;0.60;66.30
74511;DHT22;62991;50.040;18.400;2024-01-16T14:49:43;0.50;67.00
74511;DHT22;62991;50.040;18.400;2024-01-16T14:52:45;0.50;66.30
74511;DHT22;62991;50.040;18.400;2024-01-16T14:55:45;0.60;64.40
74511;DHT22;62991;50.040;18.400;2024-01-16T14:58:46;0.40;64.30
74511;DHT22;62991;50.040;18.400;2024-01-16T15:01:47;0.40;64.30
74511;DHT22;62991;50.040;18.400;2024-01-16T15:04:48;0.50;64.50
74511;DHT22;62991;50.040;18.400;2024-01-16T15:07:49;0.70;63.60
74511;DHT22;62991;50.040;18.400;2024-01-16T15:10:52;0.80;63.90
74511;DHT22;62991;50.040;18.400;2024-01-16T15:13:53;0.90;63.50
74511;DHT22;62991;50.040;18.400;2024-01-16T15:16:53;1.00;63.30
74511;DHT22;62991;50.040;18.400;2024-01-16T15:19:54;1.30;62.60
74511;DHT22;62991;50.040;18.400;2024-01-16T15:22:55;1.30;62.20
74511;DHT22;62991;50.040;18.400;2024-01-16T15:25:57;1.50;61.80
74511;DHT22;62991;50.040;18.400;2024-01-16T15:29:03;1.40;61.40
74511;DHT22;62991;50.040;18.400;2024-01-16T15:32:04;1.20;61.60
74511;DHT22;62991;50.040;18.400;2024-01-16T15:35:04;1.00;62.00
74511;DHT22;62991;50.040;18.400;2024-01-16T15:38:08;0.70;63.30
74511;DHT22;62991;50.040;18.400;2024-01-16T15:41:11;0.40;63.90
74511;DHT22;62991;50.040;18.400;2024-01-16T15:44:11;0.50;64.70
74511;DHT22;62991;50.040;18.400;2024-01-16T15:47:13;0.30;65.30
74511;DHT22;62991;50.040;18.400;2024-01-16T15:50:14;0.10;65.40
74511;DHT22;62991;50.040;18.400;2024-01-16T15:53:15;-0.10;67.00
74511;DHT22;62991;50.040;18.400;2024-01-16T15:56:15;0.20;66.40
74511;DHT22;62991;50.040;18.400;2024-01-16T15:59:16;0.50;64.90
74511;DHT22;62991;50.040;18.400;2024-01-16T16:02:17;0.30;65.00
74511;DHT22;62991;50.040;18.400;2024-01-16T16:05:17;0.40;65.50
74511;DHT22;62991;50.040;18.400;2024-01-16T16:08:20;0.60;65.00
74511;DHT22;62991;50.040;18.400;2024-01-16T16:11:25;0.70;64.00
74511;DHT22;62991;50.040;18.400;2024-01-16T16:14:28;0.80;63.70
74511;DHT22;62991;50.040;18.400;2024-01-16T16:17:31;0.50;64.80
74511;DHT22;62991;50.040;18.400;2024-01-16T16:20:32;0.70;64.60
74511;DHT22;62991;50.040;18.400;2024-01-16T16:23:32;0.50;64.80
74511;DHT22;62991;50.040;18.400;2024-01-16T16:29:36;0.60;64.50
74511;DHT22;62991;50.040;18.400;2024-01-16T16:32:38;0.20;66.00
74511;DHT22;62991;50.040;18.400;2024-01-16T16:35:39;0.60;65.50
74511;DHT22;62991;50.040;18.400;2024-01-16T16:38:40;0.60;64.90
74511;DHT22;62991;50.040;18.400;2024-01-16T16:41:41;0.60;64.50
74511;DHT22;62991;50.040;18.400;2024-01-16T16:44:42;0.80;64.90
74511;DHT22;62991;50.040;18.400;2024-01-16T16:47:43;0.90;64.00
74511;DHT22;62991;50.040;18.400;2024-01-16T16:50:44;0.90;63.70
74511;DHT22;62991;50.040;18.400;2024-01-16T16:53:45;0.80;64.20
74511;DHT22;62991;50.040;18.400;2024-01-16T16:56:46;0.80;64.10
74511;DHT22;62991;50.040;18.400;2024-01-16T16:59:47;1.00;63.60
74511;DHT22;62991;50.040;18.400;2024-01-16T17:02:47;1.10;63.20
74511;DHT22;62991;50.040;18.400;2024-01-16T17:05:48;1.00;63.20
74511;DHT22;62991;50.040;18.400;2024-01-16T17:08:49;1.10;63.20
74511;DHT22;62991;50.040;18.400;2024-01-16T17:11:49;1.00;63.30
74511;DHT22;62991;50.040;18.400;2024-01-16T17:14:50;1.10;63.30
74511;DHT22;62991;50.040;18.400;2024-01-16T17:17:54;1.10;62.80
74511;DHT22;62991;50.040;18.400;2024-01-16T17:20:55;1.00;62.70
74511;DHT22;62991;50.040;18.400;2024-01-16T17:23:57;1.10;63.10
74511;DHT22;62991;50.040;18.400;2024-01-16T17:26:57;1.10;62.70
74511;DHT22;62991;50.040;18.400;2024-01-16T17:29:58;0.80;63.20
74511;DHT22;62991;50.040;18.400;2024-01-16T17:32:59;0.70;63.40
74511;DHT22;62991;50.040;18.400;2024-01-16T17:35:59;0.50;64.00
74511;DHT22;62991;50.040;18.400;2024-01-16T17:39:00;0.50;64.50
74511;DHT22;62991;50.040;18.400;2024-01-16T17:42:01;0.60;64.50
74511;DHT22;62991;50.040;18.400;2024-01-16T17:45:04;0.70;63.90
74511;DHT22;62991;50.040;18.400;2024-01-16T17:48:05;0.70;63.70
74511;DHT22;62991;50.040;18.400;2024-01-16T17:51:07;0.80;63.70
74511;DHT22;62991;50.040;18.400;2024-01-16T17:54:08;0.80;63.70
74511;DHT22;62991;50.040;18.400;2024-01-16T17:57:09;0.80;63.70
74511;DHT22;62991;50.040;18.400;2024-01-16T18:00:11;0.80;63.50
74511;DHT22;62991;50.040;18.400;2024-01-16T18:03:12;0.90;63.30
74511;DHT22;62991;50.040;18.400;2024-01-16T18:06:14;0.80;63.40
74511;DHT22;62991;50.040;18.400;2024-01-16T18:09:16;0.70;63.80
74511;DHT22;62991;50.040;18.400;2024-01-16T18:12:17;0.70;63.70
74511;DHT22;62991;50.040;18.400;2024-01-16T18:15:18;0.80;64.30
74511;DHT22;62991;50.040;18.400;2024-01-16T18:18:18;0.90;63.50
74511;DHT22;62991;50.040;18.400;2024-01-16T18:21:21;0.80;63.50
74511;DHT22;62991;50.040;18.400;2024-01-16T18:24:22;0.90;63.60
74511;DHT22;62991;50.040;18.400;2024-01-16T18:27:23;1.00;63.10
74511;DHT22;62991;50.040;18.400;2024-01-16T18:30:23;0.90;64.70
74511;DHT22;62991;50.040;18.400;2024-01-16T18:33:27;0.90;63.70
74511;DHT22;62991;50.040;18.400;2024-01-16T18:36:28;0.80;63.20
74511;DHT22;62991;50.040;18.400;2024-01-16T18:39:29;0.70;63.90
74511;DHT22;62991;50.040;18.400;2024-01-16T18:42:30;0.80;63.40
74511;DHT22;62991;50.040;18.400;2024-01-16T18:45:30;0.80;63.80
74511;DHT22;62991;50.040;18.400;2024-01-16T18:48:31;0.80;63.40
74511;DHT22;62991;50.040;18.400;2024-01-16T18:51:33;0.80;63.50
74511;DHT22;62991;50.040;18.400;2024-01-16T18:54:34;0.80;63.50
74511;DHT22;62991;50.040;18.400;2024-01-16T18:57:36;0.70;63.60
74511;DHT22;62991;50.040;18.400;2024-01-16T19:00:37;0.60;63.60
74511;DHT22;62991;50.040;18.400;2024-01-16T19:03:38;0.60;64.30
74511;DHT22;62991;50.040;18.400;2024-01-16T19:06:45;0.60;64.10
74511;DHT22;62991;50.040;18.400;2024-01-16T19:09:46;0.60;64.30
74511;DHT22;62991;50.040;18.400;2024-01-16T19:12:47;0.70;64.00
74511;DHT22;62991;50.040;18.400;2024-01-16T19:15:48;0.60;63.80